Time;durP1;ratioP1;P1;durP2;ratioP2;P2;SDS_P1;SDS_P2;PMS_P1;PMS_P2;Temp;Humidity;BMP_temperature;BMP_pressure;BME280_temperature;BME280_humidity;BME280_pressure;Samples;Min_cycle;Max_cycle;Signal;HPM_P1;HPM_P2
2023/12/02 00:00:31;;;;;;;4.90;4.00;;;21.70;50.50;;;;;;4953893;28;87470;-8
2023/12/02 00:02:57;;;;;;;5.65;4.15;;;21.60;50.60;;;;;;4957023;28;87408;-9
2023/12/02 00:05:23;;;;;;;4.93;4.15;;;21.60;50.80;;;;;;4957951;28;87585;-13
2023/12/02 00:07:51;;;;;;;4.88;3.97;;;21.60;50.50;;;;;;4950939;28;88070;-10
2023/12/02 00:10:17;;;;;;;4.30;3.63;;;21.60;50.50;;;;;;4939041;28;88839;-9
2023/12/02 00:12:42;;;;;;;4.68;3.75;;;21.60;50.40;;;;;;4950228;28;87667;-13
2023/12/02 00:15:08;;;;;;;4.60;4.10;;;21.60;50.70;;;;;;4949978;28;88145;-10
2023/12/02 00:17:37;;;;;;;5.72;4.22;;;21.50;50.40;;;;;;4954482;28;89384;-11
2023/12/02 00:20:03;;;;;;;5.10;3.80;;;21.50;50.60;;;;;;4953701;28;88950;-11
2023/12/02 00:22:28;;;;;;;4.72;4.18;;;21.50;50.50;;;;;;4949584;28;87353;-10
2023/12/02 00:24:54;;;;;;;4.65;4.13;;;21.40;50.60;;;;;;4958092;28;87453;-11
2023/12/02 00:27:20;;;;;;;4.15;3.75;;;21.40;50.60;;;;;;4952208;28;88064;-12
2023/12/02 00:29:45;;;;;;;4.18;3.78;;;21.40;50.60;;;;;;4956171;28;87835;-10
2023/12/02 00:32:11;;;;;;;4.47;3.92;;;21.40;50.50;;;;;;4949880;28;87029;-12
2023/12/02 00:34:37;;;;;;;5.30;4.28;;;21.40;50.40;;;;;;4951236;28;86845;-8
2023/12/02 00:37:02;;;;;;;4.50;3.50;;;21.30;50.50;;;;;;4959846;28;87642;-12
2023/12/02 00:39:28;;;;;;;5.47;4.43;;;21.30;50.60;;;;;;4947028;28;89257;-9
2023/12/02 00:41:54;;;;;;;4.47;3.70;;;21.30;50.50;;;;;;4954561;28;88792;-9
2023/12/02 00:44:20;;;;;;;4.70;3.95;;;21.30;50.70;;;;;;4952828;28;87566;-11
2023/12/02 00:46:46;;;;;;;4.88;4.35;;;21.30;50.70;;;;;;4956282;28;89062;-11
2023/12/02 00:49:11;;;;;;;4.00;3.55;;;21.20;50.70;;;;;;4953042;28;88182;-10
2023/12/02 00:51:37;;;;;;;4.20;3.80;;;21.20;50.80;;;;;;4946904;28;88303;-11
2023/12/02 00:54:03;;;;;;;3.75;3.35;;;21.20;50.90;;;;;;4954202;28;88814;-8
2023/12/02 00:56:28;;;;;;;4.97;4.30;;;21.20;50.90;;;;;;4953323;28;88062;-11
2023/12/02 00:58:54;;;;;;;4.32;3.80;;;21.20;50.70;;;;;;4955694;28;88540;-9
2023/12/02 01:01:20;;;;;;;6.15;4.85;;;21.20;50.70;;;;;;4954338;28;88149;-12
2023/12/02 01:03:45;;;;;;;3.97;3.58;;;21.20;50.70;;;;;;4953592;28;87450;-10
2023/12/02 01:06:11;;;;;;;5.07;3.85;;;21.20;50.80;;;;;;4951627;28;89166;-13
2023/12/02 01:08:37;;;;;;;4.25;3.75;;;21.10;50.70;;;;;;4954628;28;89197;-11
2023/12/02 01:11:03;;;;;;;4.63;4.15;;;21.10;50.80;;;;;;4952398;28;87592;-11
2023/12/02 01:13:29;;;;;;;3.90;3.50;;;21.10;50.70;;;;;;4950601;28;87811;-9
2023/12/02 01:15:55;;;;;;;4.03;3.45;;;21.10;50.90;;;;;;4949759;28;93074;-9
2023/12/02 01:18:20;;;;;;;5.63;4.00;;;21.10;50.80;;;;;;4953074;28;88304;-13
2023/12/02 01:20:46;;;;;;;6.65;3.78;;;21.10;50.90;;;;;;4950599;28;87597;-9
2023/12/02 01:23:11;;;;;;;4.60;3.92;;;21.00;50.70;;;;;;4958918;28;87023;-9
2023/12/02 01:25:37;;;;;;;4.50;4.07;;;21.00;50.60;;;;;;4952112;28;88229;-11
2023/12/02 01:28:03;;;;;;;3.85;3.28;;;21.00;51.00;;;;;;4956489;28;87912;-9
2023/12/02 01:30:29;;;;;;;5.40;4.10;;;21.00;50.80;;;;;;4950021;28;88281;-10
2023/12/02 01:32:55;;;;;;;4.47;3.95;;;21.00;50.70;;;;;;4951526;28;87859;-9
2023/12/02 01:35:20;;;;;;;4.32;3.90;;;21.00;50.90;;;;;;4948033;28;90221;-10
2023/12/02 01:37:46;;;;;;;4.07;3.67;;;20.90;50.90;;;;;;4952639;28;87985;-9
2023/12/02 01:40:12;;;;;;;5.95;4.10;;;20.90;50.90;;;;;;4951531;28;87169;-11
2023/12/02 01:42:41;;;;;;;5.72;4.03;;;20.90;51.00;;;;;;4933707;28;88896;-11
2023/12/02 01:45:07;;;;;;;3.97;3.47;;;20.90;50.80;;;;;;4950964;28;88170;-11
2023/12/02 01:47:33;;;;;;;4.03;3.60;;;20.90;50.90;;;;;;4948459;28;87974;-9
2023/12/02 01:50:00;;;;;;;4.65;4.25;;;20.90;50.90;;;;;;4955459;28;87431;-13
2023/12/02 01:52:26;;;;;;;4.63;3.72;;;20.80;51.00;;;;;;4948093;28;87319;-13
2023/12/02 01:54:52;;;;;;;4.05;3.65;;;20.80;51.40;;;;;;4954787;28;88965;-15
2023/12/02 01:57:20;;;;;;;4.38;3.80;;;20.80;50.80;;;;;;4954553;28;89191;-13
2023/12/02 01:59:53;;;;;;;4.65;4.00;;;20.80;51.50;;;;;;4961583;28;87648;-9
2023/12/02 07:44:26;;;;;;;37.88;13.52;;;21.00;50.00;;;;;;5618630;23;88619;-90
2023/12/02 07:46:52;;;;;;;29.40;10.88;;;21.00;50.70;;;;;;4863587;28;87226;-92
2023/12/02 07:49:17;;;;;;;45.03;16.17;;;21.00;50.50;;;;;;4860076;28;88134;-91
2023/12/02 07:51:43;;;;;;;29.15;12.73;;;21.00;50.30;;;;;;4862143;28;89382;-92
2023/12/02 07:54:09;;;;;;;28.48;12.45;;;21.10;50.50;;;;;;4860058;28;89005;-91
2023/12/02 07:56:36;;;;;;;34.08;12.00;;;21.10;51.20;;;;;;4857552;28;87520;-90
2023/12/02 07:59:03;;;;;;;24.17;9.73;;;21.20;50.90;;;;;;4860837;28;86721;-95
2023/12/02 08:01:29;;;;;;;25.20;11.07;;;21.20;51.10;;;;;;4862811;28;90871;-88
2023/12/02 08:03:56;;;;;;;26.33;10.63;;;21.30;51.10;;;;;;4875840;28;88853;-90
2023/12/02 08:06:21;;;;;;;26.13;8.35;;;21.30;51.20;;;;;;4856614;28;88344;-89
2023/12/02 08:08:47;;;;;;;20.10;8.48;;;21.40;50.50;;;;;;4858167;28;89910;-87
2023/12/02 08:11:13;;;;;;;18.73;6.68;;;21.50;50.00;;;;;;4874932;28;88366;-91
2023/12/02 08:13:39;;;;;;;22.52;8.25;;;21.50;49.70;;;;;;4860509;28;90344;-91
2023/12/02 08:16:04;;;;;;;33.60;12.95;;;21.60;49.40;;;;;;4858479;28;88047;-89
2023/12/02 08:18:30;;;;;;;24.25;11.02;;;21.60;48.60;;;;;;4858737;28;89331;-92
2023/12/02 08:20:56;;;;;;;28.73;11.75;;;21.60;48.00;;;;;;4877786;28;88315;-92
2023/12/02 08:23:21;;;;;;;28.02;13.23;;;21.60;48.70;;;;;;4877046;28;87104;-89
2023/12/02 08:25:47;;;;;;;23.15;11.95;;;21.60;47.70;;;;;;4870990;28;87412;-90
2023/12/02 08:28:13;;;;;;;31.90;11.75;;;21.60;47.60;;;;;;4857296;28;88007;-88
2023/12/02 08:30:39;;;;;;;28.60;11.35;;;21.60;47.30;;;;;;4855376;28;90311;-88
2023/12/02 08:33:04;;;;;;;23.38;10.35;;;21.60;47.30;;;;;;4855432;28;91431;-92
2023/12/02 08:35:33;;;;;;;28.42;11.82;;;21.60;47.90;;;;;;4861093;28;87588;-95
2023/12/02 08:37:59;;;;;;;22.02;9.80;;;21.60;48.20;;;;;;4859414;28;88053;-91
2023/12/02 08:41:12;;;;;;;20.80;9.02;;;21.60;48.20;;;;;;4867468;23;91351;-93
2023/12/02 08:43:41;;;;;;;18.23;8.77;;;21.60;47.80;;;;;;4877481;28;88824;-93
2023/12/02 08:46:13;;;;;;;18.52;9.60;;;21.60;47.90;;;;;;4876901;28;88339;-91
2023/12/02 08:48:38;;;;;;;17.13;8.68;;;21.60;47.90;;;;;;4877400;28;88813;-91
2023/12/02 08:51:04;;;;;;;18.65;9.07;;;21.60;48.10;;;;;;4876953;28;90308;-91
2023/12/02 08:53:38;;;;;;;18.77;8.95;;;21.70;48.00;;;;;;4879535;28;89776;-91
2023/12/02 08:56:07;;;;;;;17.88;7.43;;;21.70;47.60;;;;;;4880025;28;88726;-92
2023/12/02 08:58:33;;;;;;;24.85;9.05;;;21.70;47.90;;;;;;4881690;28;91765;-92
2023/12/02 09:00:59;;;;;;;22.00;10.25;;;21.80;48.00;;;;;;4880304;28;89966;-94
2023/12/02 09:03:24;;;;;;;18.33;8.50;;;21.80;47.30;;;;;;4882390;28;89384;-92
2023/12/02 09:05:55;;;;;;;22.90;7.38;;;21.70;46.60;;;;;;4881112;28;86960;-94
2023/12/02 09:08:21;;;;;;;20.42;7.65;;;21.80;47.70;;;;;;4879556;28;88292;-92
2023/12/02 09:10:47;;;;;;;17.88;8.20;;;21.80;47.70;;;;;;4881864;28;90481;-94
2023/12/02 09:13:41;;;;;;;17.42;8.55;;;21.80;47.70;;;;;;4883673;28;89480;-90
2023/12/02 09:16:12;;;;;;;16.33;7.35;;;21.80;48.10;;;;;;4890326;28;87791;-94
2023/12/02 09:18:38;;;;;;;15.90;7.68;;;21.80;48.30;;;;;;4882687;28;89635;-94
2023/12/02 09:21:15;;;;;;;16.27;8.30;;;21.80;48.60;;;;;;4881440;28;90277;-95
2023/12/02 09:23:43;;;;;;;15.10;8.32;;;21.80;48.70;;;;;;4902039;28;91335;-89
2023/12/02 09:26:27;;;;;;;18.02;8.32;;;21.80;48.70;;;;;;4883179;28;87371;-89
2023/12/02 09:28:54;;;;;;;22.08;9.43;;;21.80;47.00;;;;;;4879848;28;89108;-91
2023/12/02 09:31:20;;;;;;;15.25;8.57;;;21.80;46.80;;;;;;4879950;28;89348;-91
2023/12/02 09:33:54;;;;;;;22.70;10.38;;;21.70;47.00;;;;;;4878642;28;90411;-91
2023/12/02 09:36:39;;;;;;;21.55;9.32;;;21.80;48.10;;;;;;4878248;28;87950;-91
2023/12/02 09:39:16;;;;;;;22.75;9.32;;;21.80;48.40;;;;;;4874973;28;89057;-91
2023/12/02 09:41:49;;;;;;;22.00;10.32;;;21.80;48.50;;;;;;4878862;28;90757;-90
2023/12/02 09:44:44;;;;;;;20.02;8.13;;;21.80;48.60;;;;;;4878448;28;89237;-89
2023/12/02 09:47:17;;;;;;;19.30;8.38;;;21.80;49.10;;;;;;4879116;28;88524;-90
2023/12/02 09:49:58;;;;;;;17.52;8.38;;;21.80;49.00;;;;;;4878638;28;89724;-90
2023/12/02 09:52:42;;;;;;;18.20;8.10;;;21.80;49.10;;;;;;4878083;28;87835;-87
2023/12/02 09:55:29;;;;;;;19.48;8.68;;;21.80;49.20;;;;;;4889795;28;87339;-93
2023/12/02 09:57:58;;;;;;;14.90;6.95;;;21.80;49.30;;;;;;4876079;28;87678;-90
2023/12/02 10:01:04;;;;;;;21.97;9.00;;;21.80;49.90;;;;;;4875261;28;88336;-88
2023/12/02 10:03:53;;;;;;;16.92;6.95;;;21.80;49.20;;;;;;4843627;28;88239;-90
2023/12/02 10:06:42;;;;;;;17.70;7.10;;;21.80;49.60;;;;;;4875755;28;87931;-89
2023/12/02 10:09:29;;;;;;;14.48;7.25;;;21.80;48.20;;;;;;5182174;23;90461;-56
2023/12/02 10:12:30;;;;;;;20.58;8.20;;;21.80;47.90;;;;;;4871851;28;87098;-56
2023/12/02 10:15:06;;;;;;;14.90;7.72;;;21.80;47.00;;;;;;4873040;28;97982;-67
2023/12/02 10:17:57;;;;;;;16.67;7.38;;;21.80;47.00;;;;;;4870666;28;88807;-69
2023/12/02 10:20:28;;;;;;;15.88;6.28;;;21.80;47.20;;;;;;4864940;28;87537;-65
2023/12/02 10:23:25;;;;;;;13.63;7.50;;;21.80;47.90;;;;;;4872782;28;87565;-64
2023/12/02 10:26:10;;;;;;;24.00;8.80;;;21.80;47.20;;;;;;4854371;28;91454;-65
2023/12/02 10:29:06;;;;;;;25.58;10.10;;;21.80;46.50;;;;;;4871711;28;87916;-66
2023/12/02 10:31:35;;;;;;;23.98;10.38;;;21.80;46.10;;;;;;4854999;28;86892;-63
2023/12/02 10:34:23;;;;;;;22.38;9.18;;;21.80;45.20;;;;;;4872711;28;88403;-64
2023/12/02 10:36:52;;;;;;;21.55;8.98;;;21.80;44.80;;;;;;4855807;28;91089;-62
2023/12/02 10:39:43;;;;;;;17.85;8.80;;;21.80;44.40;;;;;;4855745;28;90997;-62
2023/12/02 10:42:32;;;;;;;19.20;8.15;;;21.80;44.50;;;;;;4873302;28;88375;-63
2023/12/02 10:45:06;;;;;;;20.33;8.30;;;21.80;44.20;;;;;;4857248;28;90037;-63
2023/12/02 10:47:32;;;;;;;15.15;8.30;;;21.80;43.70;;;;;;4873574;28;92579;-62
2023/12/02 10:50:02;;;;;;;16.73;8.60;;;21.80;42.80;;;;;;4873646;28;87898;-64
2023/12/02 10:52:30;;;;;;;13.30;8.48;;;21.70;43.00;;;;;;4861378;28;87831;-61
2023/12/02 10:55:02;;;;;;;13.23;8.02;;;21.70;42.90;;;;;;4855999;28;90603;-63
2023/12/02 10:57:29;;;;;;;20.55;8.57;;;21.70;42.30;;;;;;4873395;28;87576;-60
2023/12/02 11:00:06;;;;;;;12.23;7.78;;;21.70;43.00;;;;;;4858103;28;90817;-61
2023/12/02 11:02:53;;;;;;;12.73;6.57;;;21.60;43.10;;;;;;4875220;28;87777;-66
2023/12/02 11:05:26;;;;;;;13.10;6.72;;;21.70;45.00;;;;;;4873541;28;87396;-64
2023/12/02 11:08:08;;;;;;;12.75;5.93;;;21.70;45.80;;;;;;4855809;28;92036;-65
2023/12/02 11:10:36;;;;;;;11.30;6.18;;;21.70;46.50;;;;;;4856117;28;91947;-60
2023/12/02 11:13:11;;;;;;;11.55;6.28;;;21.70;46.90;;;;;;4873165;28;87996;-62
2023/12/02 11:16:03;;;;;;;8.80;4.90;;;21.70;47.10;;;;;;4873108;28;88480;-64
2023/12/02 11:18:43;;;;;;;9.85;6.30;;;21.70;47.40;;;;;;4873035;28;88110;-62
2023/12/02 11:21:24;;;;;;;12.30;5.85;;;21.80;47.70;;;;;;4865291;28;91030;-64
2023/12/02 11:24:20;;;;;;;11.57;6.47;;;21.70;47.70;;;;;;4875152;28;87277;-64
2023/12/02 11:27:21;;;;;;;14.23;6.28;;;21.70;47.80;;;;;;4878563;28;90859;-61
2023/12/02 11:29:53;;;;;;;11.60;6.68;;;21.80;47.50;;;;;;4878347;28;93025;-62
2023/12/02 11:32:55;;;;;;;12.32;7.68;;;21.70;46.50;;;;;;4874804;28;87511;-62
2023/12/02 11:35:41;;;;;;;12.68;7.38;;;21.70;45.70;;;;;;4866083;28;88807;-64
2023/12/02 11:38:19;;;;;;;11.68;6.00;;;21.70;45.60;;;;;;4872982;28;89004;-68
2023/12/02 11:41:16;;;;;;;17.00;6.27;;;21.70;46.80;;;;;;4854892;28;90747;-65
2023/12/02 11:44:13;;;;;;;11.18;5.90;;;21.60;46.80;;;;;;4871864;28;91298;-65
2023/12/02 11:47:06;;;;;;;9.63;5.50;;;21.60;47.10;;;;;;4873536;28;88112;-61
2023/12/02 11:49:52;;;;;;;8.85;5.53;;;21.60;47.60;;;;;;4873144;28;87962;-65
2023/12/02 11:52:40;;;;;;;10.43;5.78;;;21.70;47.70;;;;;;4855982;28;90934;-68
2023/12/02 11:55:34;;;;;;;10.82;4.63;;;21.70;48.00;;;;;;4873472;28;88424;-65
2023/12/02 11:58:26;;;;;;;12.18;5.25;;;21.70;48.00;;;;;;4873724;28;87567;-62
2023/12/02 12:01:01;;;;;;;7.88;4.75;;;21.70;48.30;;;;;;4855485;28;88218;-63
2023/12/02 12:03:44;;;;;;;9.52;4.28;;;21.70;48.30;;;;;;4872236;28;89126;-64
2023/12/02 12:06:35;;;;;;;7.95;4.93;;;21.70;48.50;;;;;;4854857;28;91824;-63
2023/12/02 12:09:29;;;;;;;10.52;4.90;;;21.80;48.30;;;;;;4865719;28;88047;-65
2023/12/02 12:11:57;;;;;;;7.78;4.80;;;21.80;48.40;;;;;;4871235;28;94486;-62
2023/12/02 12:14:26;;;;;;;10.00;5.03;;;21.80;48.10;;;;;;4855696;28;90664;-62
2023/12/02 12:16:52;;;;;;;10.50;5.55;;;21.80;48.20;;;;;;4855480;28;90873;-66
2023/12/02 12:19:17;;;;;;;8.98;4.50;;;21.80;48.30;;;;;;4856385;28;87589;-63
2023/12/02 12:21:44;;;;;;;9.68;5.10;;;21.80;48.50;;;;;;4872798;28;87108;-65
2023/12/02 12:24:10;;;;;;;10.18;4.88;;;21.80;48.40;;;;;;4871867;28;88149;-63
2023/12/02 12:26:35;;;;;;;9.77;5.22;;;21.80;48.10;;;;;;4872871;28;87805;-60
2023/12/02 12:29:01;;;;;;;6.93;4.55;;;21.80;48.30;;;;;;4872229;28;88186;-63
2023/12/02 12:31:30;;;;;;;8.73;4.50;;;21.80;48.40;;;;;;4854602;28;90117;-61
2023/12/02 12:33:58;;;;;;;8.20;4.32;;;21.70;48.40;;;;;;4854701;28;90699;-60
2023/12/02 12:36:28;;;;;;;8.57;4.70;;;21.70;48.60;;;;;;4854925;28;91334;-63
2023/12/02 12:39:01;;;;;;;8.05;4.47;;;21.70;48.60;;;;;;4856172;28;87851;-65
2023/12/02 12:41:27;;;;;;;7.97;4.68;;;21.70;48.60;;;;;;4853387;28;95268;-67
2023/12/02 12:43:56;;;;;;;9.35;4.20;;;21.70;48.50;;;;;;4852034;28;90974;-62
2023/12/02 12:46:26;;;;;;;13.05;4.57;;;21.70;48.80;;;;;;4870028;28;88244;-66
2023/12/02 12:48:53;;;;;;;10.13;4.63;;;21.70;48.70;;;;;;4868782;28;87595;-67
2023/12/02 12:51:20;;;;;;;8.18;4.28;;;21.70;48.80;;;;;;4853561;28;89337;-63
2023/12/02 12:54:11;;;;;;;8.63;4.60;;;21.70;48.80;;;;;;4845753;28;92475;-65
2023/12/02 12:56:40;;;;;;;12.38;4.75;;;21.80;48.80;;;;;;4844102;28;94596;-64
2023/12/02 12:59:19;;;;;;;11.07;5.03;;;21.80;48.60;;;;;;4866807;28;91722;-65
2023/12/02 13:01:50;;;;;;;6.85;4.22;;;21.80;48.90;;;;;;4863639;28;89468;-63
2023/12/02 13:04:24;;;;;;;8.07;4.18;;;21.80;48.60;;;;;;4868462;28;90243;-63
2023/12/02 13:07:13;;;;;;;8.68;5.28;;;21.80;48.80;;;;;;4875570;28;87840;-63
2023/12/02 13:09:45;;;;;;;12.87;5.23;;;21.70;47.90;;;;;;4871813;28;87690;-61
2023/12/02 13:12:22;;;;;;;8.25;4.53;;;21.70;47.20;;;;;;4853449;28;89755;-62
2023/12/02 13:14:53;;;;;;;6.95;4.28;;;21.70;47.70;;;;;;4870905;28;88437;-66
2023/12/02 13:17:19;;;;;;;8.18;5.00;;;21.70;48.30;;;;;;4853478;28;91039;-62
2023/12/02 13:19:46;;;;;;;11.20;4.22;;;21.70;48.40;;;;;;4840482;29;88497;-64
2023/12/02 13:22:13;;;;;;;10.75;4.68;;;21.70;48.50;;;;;;4852174;28;90332;-66
2023/12/02 13:24:53;;;;;;;7.35;4.63;;;21.70;48.50;;;;;;4854475;28;90848;-63
2023/12/02 13:27:31;;;;;;;7.45;4.65;;;21.70;48.40;;;;;;4861817;28;88341;-61
2023/12/02 13:30:04;;;;;;;5.90;3.47;;;21.70;48.70;;;;;;4864928;28;88363;-59
2023/12/02 13:32:31;;;;;;;7.28;4.60;;;21.70;49.00;;;;;;4871967;28;92628;-60
2023/12/02 13:35:04;;;;;;;9.40;4.80;;;21.70;48.60;;;;;;4871350;28;87576;-62
2023/12/02 13:38:13;;;;;;;5.53;3.67;;;21.70;48.80;;;;;;4870844;28;89712;-60
2023/12/02 13:41:10;;;;;;;9.55;4.45;;;21.70;48.90;;;;;;4836295;28;87877;-59
2023/12/02 13:43:49;;;;;;;12.32;4.78;;;21.70;49.00;;;;;;4772766;28;89061;-60
2023/12/02 13:46:16;;;;;;;6.78;4.25;;;21.70;49.00;;;;;;4870019;28;89971;-60
2023/12/02 13:49:09;;;;;;;7.82;4.25;;;21.70;49.00;;;;;;4871639;28;90111;-58
2023/12/02 13:51:45;;;;;;;7.00;4.43;;;21.70;49.20;;;;;;4874271;28;87470;-59
2023/12/02 13:54:32;;;;;;;5.65;4.03;;;21.70;49.00;;;;;;4873348;28;87488;-60
2023/12/02 13:57:03;;;;;;;7.68;4.30;;;21.70;49.30;;;;;;4874936;28;89065;-60
2023/12/02 13:59:38;;;;;;;6.57;3.67;;;21.60;49.20;;;;;;4875002;28;91552;-61
2023/12/02 14:02:19;;;;;;;9.07;4.22;;;21.60;49.50;;;;;;4874980;28;87223;-60
2023/12/02 14:05:05;;;;;;;5.72;3.80;;;21.70;49.40;;;;;;4872807;28;88815;-60
2023/12/02 14:07:33;;;;;;;5.30;3.85;;;21.60;49.50;;;;;;4872594;28;89963;-61
2023/12/02 14:09:59;;;;;;;5.05;3.60;;;21.60;49.60;;;;;;4873365;28;89279;-60
2023/12/02 14:13:07;;;;;;;6.43;4.15;;;21.70;49.70;;;;;;4874289;28;88391;-60
2023/12/02 14:16:07;;;;;;;6.65;4.55;;;21.70;49.80;;;;;;4874806;28;87514;-60
2023/12/02 14:18:50;;;;;;;9.18;4.70;;;21.70;49.90;;;;;;4874516;28;88772;-61
2023/12/02 14:21:34;;;;;;;10.55;4.28;;;21.70;50.30;;;;;;4856164;28;89995;-57
2023/12/02 14:24:35;;;;;;;7.65;4.20;;;21.60;49.70;;;;;;4873790;28;87710;-60
2023/12/02 14:27:29;;;;;;;4.82;3.92;;;21.70;49.90;;;;;;4874762;28;91791;-60
2023/12/02 14:30:24;;;;;;;5.38;4.38;;;21.60;50.20;;;;;;4873527;28;91914;-61
2023/12/02 14:33:18;;;;;;;9.38;3.67;;;21.60;50.40;;;;;;4875149;28;92542;-60
2023/12/02 14:36:23;;;;;;;9.90;3.83;;;21.60;50.00;;;;;;4874703;28;88154;-64
2023/12/02 14:39:18;;;;;;;5.75;3.97;;;21.60;49.80;;;;;;4828210;28;92621;-65
2023/12/02 14:41:50;;;;;;;8.43;4.55;;;21.60;49.80;;;;;;4852873;28;93597;-67
2023/12/02 14:44:28;;;;;;;4.43;4.00;;;21.70;49.60;;;;;;4856755;28;91696;-64
2023/12/02 14:47:00;;;;;;;7.13;5.05;;;21.60;50.10;;;;;;4875131;28;87744;-61
2023/12/02 14:49:27;;;;;;;7.07;4.78;;;21.70;49.70;;;;;;4857588;28;90543;-64
2023/12/02 14:51:58;;;;;;;7.93;5.00;;;21.60;49.60;;;;;;4857722;28;91076;-63
2023/12/02 14:54:28;;;;;;;6.55;4.53;;;21.60;49.90;;;;;;4875257;28;88056;-63
2023/12/02 14:56:54;;;;;;;9.27;4.72;;;21.60;49.90;;;;;;4876742;28;87293;-65
2023/12/02 14:59:21;;;;;;;5.43;3.75;;;21.60;49.90;;;;;;4874538;28;86794;-64
2023/12/02 15:01:51;;;;;;;8.00;4.60;;;21.60;50.00;;;;;;4857967;28;91605;-63
2023/12/02 15:04:19;;;;;;;7.45;4.55;;;21.60;50.00;;;;;;4846149;28;90829;-62
2023/12/02 15:06:49;;;;;;;5.88;3.70;;;21.60;50.00;;;;;;4853166;28;87988;-61
2023/12/02 15:09:21;;;;;;;5.38;3.65;;;21.60;49.80;;;;;;4876484;28;87381;-61
2023/12/02 15:11:49;;;;;;;5.65;3.80;;;21.60;50.00;;;;;;4859923;28;91328;-63
2023/12/02 15:14:15;;;;;;;8.18;4.90;;;21.60;50.10;;;;;;4858792;28;90242;-64
2023/12/02 15:16:40;;;;;;;8.98;5.70;;;21.70;49.50;;;;;;4858753;28;87524;-63
2023/12/02 15:19:10;;;;;;;8.80;5.63;;;21.70;48.60;;;;;;4875901;28;87379;-63
2023/12/02 15:22:16;;;;;;;7.53;5.45;;;21.70;49.20;;;;;;4859073;28;91437;-63
2023/12/02 15:24:42;;;;;;;7.85;5.18;;;21.70;49.60;;;;;;4877038;28;87840;-63
2023/12/02 15:27:08;;;;;;;8.45;5.82;;;21.70;49.30;;;;;;4858994;28;87799;-62
2023/12/02 15:29:34;;;;;;;6.05;5.07;;;21.70;49.00;;;;;;4859570;28;90386;-65
2023/12/02 15:32:02;;;;;;;7.18;5.60;;;21.70;49.60;;;;;;4874055;28;89039;-63
2023/12/02 15:34:30;;;;;;;6.65;5.43;;;21.70;50.50;;;;;;4874002;28;90650;-64
2023/12/02 15:36:57;;;;;;;7.90;5.68;;;21.60;49.50;;;;;;4876209;28;87004;-66
2023/12/02 15:39:23;;;;;;;9.88;6.43;;;21.60;50.00;;;;;;4858468;28;89850;-62
2023/12/02 15:41:50;;;;;;;15.80;7.50;;;21.60;51.50;;;;;;4876851;28;87867;-61
2023/12/02 15:44:16;;;;;;;6.60;4.57;;;21.60;52.30;;;;;;4874261;28;91388;-62
2023/12/02 15:46:45;;;;;;;11.00;5.85;;;21.60;51.40;;;;;;4876623;28;87460;-62
2023/12/02 15:49:12;;;;;;;10.35;5.30;;;21.60;50.70;;;;;;4875356;28;88627;-60
2023/12/02 15:51:38;;;;;;;7.18;4.88;;;21.60;50.70;;;;;;4857777;28;91856;-65
2023/12/02 15:54:10;;;;;;;7.25;4.88;;;21.60;50.30;;;;;;4867323;28;91476;-64
2023/12/02 15:56:37;;;;;;;10.30;4.90;;;21.60;50.50;;;;;;4857374;28;88363;-61
2023/12/02 15:59:03;;;;;;;7.70;4.55;;;21.60;50.40;;;;;;4873054;28;87581;-60
2023/12/02 16:01:29;;;;;;;10.70;4.53;;;21.60;50.60;;;;;;4874907;28;88277;-60
2023/12/02 16:03:57;;;;;;;9.90;4.22;;;21.60;50.50;;;;;;4857161;28;91275;-61
2023/12/02 16:06:23;;;;;;;9.07;4.95;;;21.60;50.60;;;;;;4857528;28;87390;-63
2023/12/02 16:08:49;;;;;;;5.93;4.57;;;21.70;51.00;;;;;;4875251;28;88567;-62
2023/12/02 16:11:16;;;;;;;6.35;4.53;;;21.70;50.40;;;;;;4873408;28;88719;-60
2023/12/02 16:13:42;;;;;;;6.13;4.82;;;21.70;50.30;;;;;;4857032;28;90570;-59
2023/12/02 16:16:11;;;;;;;7.03;4.90;;;21.70;50.30;;;;;;4856968;28;87545;-62
2023/12/02 16:18:39;;;;;;;7.85;4.80;;;21.70;50.30;;;;;;4874027;28;87734;-59
2023/12/02 16:21:06;;;;;;;8.40;4.80;;;21.70;50.30;;;;;;4856152;28;92682;-60
2023/12/02 16:23:33;;;;;;;10.18;6.05;;;21.80;50.30;;;;;;4872795;28;91601;-59
2023/12/02 16:25:59;;;;;;;5.97;4.68;;;21.70;50.30;;;;;;4857111;28;87511;-62
2023/12/02 16:28:30;;;;;;;7.60;5.00;;;21.70;50.40;;;;;;4872328;28;87567;-57
2023/12/02 16:30:56;;;;;;;7.10;5.30;;;21.70;50.40;;;;;;4856523;28;91739;-57
2023/12/02 16:33:21;;;;;;;5.88;4.65;;;21.70;50.60;;;;;;4873206;28;87844;-58
2023/12/02 16:35:47;;;;;;;6.10;4.47;;;21.70;50.70;;;;;;4873818;28;87937;-60
2023/12/02 16:38:16;;;;;;;14.07;5.10;;;21.70;50.60;;;;;;4872071;28;88604;-57
2023/12/02 16:40:53;;;;;;;5.97;4.57;;;21.80;50.70;;;;;;4854206;28;90760;-59
2023/12/02 16:43:22;;;;;;;5.15;4.28;;;21.80;50.70;;;;;;4872820;28;88929;-59
2023/12/02 16:45:56;;;;;;;8.75;4.82;;;21.80;50.80;;;;;;4855209;28;88508;-58
2023/12/02 16:48:23;;;;;;;7.13;4.88;;;21.80;50.70;;;;;;4870487;28;90503;-58
2023/12/02 16:50:50;;;;;;;6.72;3.90;;;21.80;51.20;;;;;;4854994;28;90507;-58
2023/12/02 16:53:20;;;;;;;8.55;4.18;;;21.90;51.00;;;;;;4855257;28;89883;-59
2023/12/02 16:55:48;;;;;;;5.70;3.90;;;21.90;50.90;;;;;;4854980;28;87604;-59
2023/12/02 16:58:14;;;;;;;4.22;3.53;;;21.90;50.60;;;;;;4871776;28;88903;-59
2023/12/02 17:00:41;;;;;;;6.15;4.18;;;21.90;50.40;;;;;;4844888;28;91221;-60
2023/12/02 17:03:08;;;;;;;6.93;3.92;;;21.90;50.60;;;;;;4854751;28;90912;-58
2023/12/02 17:05:34;;;;;;;6.20;4.25;;;21.90;50.70;;;;;;4872651;28;87649;-58
2023/12/02 17:08:07;;;;;;;5.75;4.18;;;21.90;50.70;;;;;;4872081;28;87377;-62
2023/12/02 17:10:42;;;;;;;5.65;4.22;;;22.00;50.70;;;;;;4853800;28;92284;-63
2023/12/02 17:13:35;;;;;;;7.22;4.10;;;22.00;50.80;;;;;;4872009;28;89750;-63
2023/12/02 17:16:00;;;;;;;8.00;4.63;;;22.00;50.60;;;;;;4853431;28;87632;-65
2023/12/02 17:19:02;;;;;;;9.90;5.90;;;22.00;50.30;;;;;;4852930;28;89952;-64
2023/12/02 17:21:30;;;;;;;9.63;5.70;;;22.00;49.40;;;;;;4850474;28;91522;-61
2023/12/02 17:23:57;;;;;;;12.40;6.35;;;22.00;48.70;;;;;;4874865;28;89289;-60
2023/12/02 17:26:33;;;;;;;9.52;5.55;;;22.00;49.50;;;;;;4856755;28;87329;-62
2023/12/02 17:28:59;;;;;;;21.98;6.50;;;22.00;49.70;;;;;;4855172;28;89377;-65
2023/12/02 17:31:25;;;;;;;13.15;6.32;;;22.10;50.20;;;;;;4856771;28;90879;-65
2023/12/02 17:33:51;;;;;;;10.80;5.80;;;22.10;50.10;;;;;;4856837;28;90867;-63
2023/12/02 17:36:16;;;;;;;11.80;5.72;;;22.10;50.20;;;;;;4873816;28;88752;-61
2023/12/02 17:38:42;;;;;;;12.02;5.93;;;22.10;50.30;;;;;;4856961;28;88449;-63
2023/12/02 17:41:08;;;;;;;24.58;6.70;;;22.20;50.10;;;;;;4873226;28;89270;-62
2023/12/02 17:43:34;;;;;;;17.55;6.32;;;22.20;50.00;;;;;;4855058;28;90123;-65
2023/12/02 17:46:01;;;;;;;14.82;6.60;;;22.30;50.10;;;;;;4855880;28;87679;-63
2023/12/02 17:48:26;;;;;;;15.05;5.90;;;22.30;50.10;;;;;;4855540;28;89207;-60
2023/12/02 17:50:52;;;;;;;12.27;5.60;;;22.30;49.90;;;;;;4874495;28;88230;-61
2023/12/02 17:53:18;;;;;;;14.30;6.65;;;22.30;50.20;;;;;;4855296;28;90895;-63
2023/12/02 17:55:43;;;;;;;13.82;6.13;;;22.20;50.00;;;;;;4873582;28;87888;-63
2023/12/02 17:58:10;;;;;;;11.82;6.03;;;22.30;50.40;;;;;;4863189;28;88163;-61
2023/12/02 18:00:35;;;;;;;15.13;6.20;;;22.30;50.30;;;;;;4855983;28;92364;-59
2023/12/02 18:03:01;;;;;;;12.27;5.88;;;22.20;50.40;;;;;;4873367;28;87509;-61
2023/12/02 18:05:27;;;;;;;12.10;5.85;;;22.20;50.40;;;;;;4873875;28;87495;-63
2023/12/02 18:07:53;;;;;;;11.07;5.97;;;22.20;50.50;;;;;;4874882;28;87735;-61
2023/12/02 18:10:19;;;;;;;12.70;5.90;;;22.20;50.80;;;;;;4856314;28;89427;-64
2023/12/02 18:12:44;;;;;;;9.88;5.15;;;22.20;50.70;;;;;;4856765;28;90883;-56
2023/12/02 18:15:10;;;;;;;14.27;5.55;;;22.30;51.00;;;;;;4874253;28;87192;-63
2023/12/02 18:17:36;;;;;;;12.35;5.82;;;22.30;50.90;;;;;;4875515;28;86967;-62
2023/12/02 18:20:02;;;;;;;10.38;5.90;;;22.40;50.90;;;;;;4874650;28;91648;-66
2023/12/02 18:22:27;;;;;;;12.10;5.05;;;22.40;50.80;;;;;;4858251;28;91356;-66
2023/12/02 18:24:53;;;;;;;13.13;5.78;;;22.40;50.50;;;;;;4875578;28;87966;-63
2023/12/02 18:27:21;;;;;;;10.85;5.47;;;22.40;50.60;;;;;;4874961;28;87946;-64
2023/12/02 18:29:48;;;;;;;8.35;4.68;;;22.40;50.60;;;;;;4861008;28;91436;-65
2023/12/02 18:32:14;;;;;;;9.68;4.95;;;22.40;50.20;;;;;;4861109;28;90839;-65
2023/12/02 18:34:40;;;;;;;18.52;5.75;;;22.30;50.50;;;;;;4859621;28;87664;-64
2023/12/02 18:37:06;;;;;;;10.15;5.28;;;22.40;50.50;;;;;;4856671;28;90550;-66
2023/12/02 18:39:31;;;;;;;10.75;5.85;;;22.40;50.40;;;;;;4873148;28;88220;-65
2023/12/02 18:41:57;;;;;;;8.13;5.03;;;22.30;50.20;;;;;;4874917;28;87847;-62
2023/12/02 18:44:23;;;;;;;10.25;5.50;;;22.30;50.40;;;;;;4858692;28;87285;-61
2023/12/02 18:46:51;;;;;;;9.38;5.22;;;22.30;50.40;;;;;;4877174;28;87032;-61
2023/12/02 18:49:17;;;;;;;12.17;6.47;;;22.30;50.50;;;;;;4858319;28;91985;-62
2023/12/02 18:51:43;;;;;;;8.02;4.85;;;22.30;50.40;;;;;;4878069;28;89123;-61